Time,TemperatureF,DewpointF,PressureIn,WindDirection,WindDirectionDegrees,WindSpeedMPH,WindSpeedGustMPH,Humidity,HourlyPrecipIn,Conditions,Clouds,dailyrainin,SoftwareType,DateUTC
2013-06-01 00:02:00,65.0,60.0,29.62,SSE,164,2.0,7.0,85,0.00,,,0.01,,2013-06-01 05:02:00,
2013-06-01 00:12:00,65.0,60.0,29.62,SSE,164,2.0,7.0,85,0.00,,,0.01,,2013-06-01 05:12:00,
2013-06-01 00:22:00,65.0,61.0,29.63,South,170,2.0,7.0,86,0.00,,,0.00,,2013-06-01 05:22:00,
2013-06-01 00:32:00,64.0,60.0,29.63,South,178,1.0,8.0,87,0.00,,,0.00,,2013-06-01 05:32:00,
2013-06-01 00:42:00,64.0,60.0,29.64,South,170,1.0,5.0,88,0.00,,,0.00,,2013-06-01 05:42:00,
2013-06-01 00:52:00,64.0,60.0,29.64,South,170,1.0,5.0,88,0.00,,,0.00,,2013-06-01 05:52:00,
2013-06-01 01:01:00,64.0,61.0,29.64,WSW,252,1.0,5.0,89,0.00,,,0.00,,2013-06-01 06:01:00,
2013-06-01 01:12:00,64.0,61.0,29.64,WSW,252,1.0,5.0,89,0.00,,,0.00,,2013-06-01 06:12:00,
2013-06-01 01:22:00,65.0,60.0,29.65,WNW,290,9.0,25.0,83,0.00,,,0.00,,2013-06-01 06:22:00,
2013-06-01 01:32:00,62.0,57.0,29.64,WSW,252,9.0,19.0,85,0.01,,,0.01,,2013-06-01 06:32:00,
2013-06-01 01:42:00,61.0,57.0,29.64,NW,317,5.0,14.0,86,0.01,,,0.01,,2013-06-01 06:42:00,
2013-06-01 01:52:00,61.0,57.0,29.64,NW,317,5.0,14.0,86,0.01,,,0.01,,2013-06-01 06:52:00,
2013-06-01 02:01:00,60.0,55.0,29.62,NNE,26,1.0,9.0,83,0.01,,,0.01,,2013-06-01 07:01:00,
2013-06-01 02:11:00,60.0,55.0,29.62,NNE,26,1.0,9.0,83,0.01,,,0.01,,2013-06-01 07:11:00,
2013-06-01 02:22:00,60.0,56.0,29.63,NNE,28,0.0,1.0,86,0.01,,,0.01,,2013-06-01 07:22:00,
2013-06-01 02:31:00,58.0,54.0,29.62,NNE,28,0.0,0.0,87,0.00,,,0.01,,2013-06-01 07:31:00,
2013-06-01 02:42:00,57.0,54.0,29.62,NNE,28,0.0,1.0,89,0.00,,,0.01,,2013-06-01 07:42:00,
2013-06-01 02:52:00,57.0,54.0,29.62,NNE,28,0.0,1.0,89,0.00,,,0.01,,2013-06-01 07:52:00,
2013-06-01 03:02:00,57.0,54.0,29.61,NNE,28,1.0,2.0,89,0.00,,,0.01,,2013-06-01 08:02:00,
2013-06-01 03:11:00,56.0,53.0,29.61,NNE,28,0.0,1.0,91,0.00,,,0.01,,2013-06-01 08:11:00,
2013-06-01 03:21:00,56.0,53.0,29.61,NNE,28,0.0,1.0,91,0.00,,,0.01,,2013-06-01 08:21:00,
2013-06-01 03:32:00,56.0,54.0,29.61,NNE,28,0.0,1.0,92,0.00,,,0.01,,2013-06-01 08:32:00,
2013-06-01 03:42:00,56.0,54.0,29.59,NNE,28,0.0,1.0,92,0.00,,,0.01,,2013-06-01 08:42:00,
2013-06-01 03:52:00,56.0,54.0,29.59,NNE,28,0.0,1.0,92,0.00,,,0.01,,2013-06-01 08:52:00,
2013-06-01 04:01:00,55.0,53.0,29.59,NNE,28,0.0,0.0,94,0.00,,,0.01,,2013-06-01 09:01:00,
2013-06-01 04:12:00,55.0,53.0,29.59,NNE,28,0.0,0.0,94,0.00,,,0.01,,2013-06-01 09:12:00,
2013-06-01 04:21:00,55.0,53.0,29.59,NNE,28,0.0,0.0,94,0.00,,,0.01,,2013-06-01 09:21:00,
2013-06-01 04:33:00,55.0,53.0,29.58,NNE,28,0.0,1.0,94,0.00,,,0.01,,2013-06-01 09:33:00,
2013-06-01 04:42:00,55.0,53.0,29.58,NNE,28,0.0,1.0,94,0.00,,,0.01,,2013-06-01 09:42:00,
2013-06-01 04:53:00,55.0,54.0,29.59,ENE,63,0.0,4.0,95,0.00,,,0.01,,2013-06-01 09:53:00,
2013-06-01 05:02:00,55.0,54.0,29.59,ESE,105,0.0,2.0,95,0.00,,,0.01,,2013-06-01 10:02:00,
2013-06-01 05:13:00,55.0,54.0,29.59,ESE,105,0.0,2.0,95,0.00,,,0.01,,2013-06-01 10:13:00,
2013-06-01 05:22:00,55.0,54.0,29.59,ESE,106,0.0,1.0,95,0.00,,,0.01,,2013-06-01 10:22:00,
2013-06-01 05:32:00,55.0,54.0,29.59,ESE,106,0.0,2.0,95,0.00,,,0.01,,2013-06-01 10:32:00,
2013-06-01 05:42:00,55.0,54.0,29.59,ESE,106,0.0,2.0,95,0.00,,,0.01,,2013-06-01 10:42:00,
2013-06-01 05:52:00,56.0,54.0,29.59,ESE,121,0.0,2.0,94,0.00,,,0.01,,2013-06-01 10:52:00,
2013-06-01 06:02:00,56.0,54.0,29.60,SE,146,1.0,5.0,93,0.00,,,0.01,,2013-06-01 11:02:00,
2013-06-01 06:11:00,56.0,54.0,29.60,SE,146,1.0,5.0,93,0.00,,,0.01,,2013-06-01 11:11:00,
2013-06-01 06:21:00,57.0,55.0,29.60,SE,143,0.0,4.0,92,0.00,,,0.01,,2013-06-01 11:21:00,
2013-06-01 06:32:00,57.0,55.0,29.60,SE,143,0.0,2.0,92,0.00,,,0.01,,2013-06-01 11:32:00,
2013-06-01 06:42:00,57.0,55.0,29.60,SE,143,0.0,2.0,92,0.00,,,0.01,,2013-06-01 11:42:00,
2013-06-01 06:52:00,57.0,55.0,29.60,SE,143,1.0,4.0,92,0.00,,,0.01,,2013-06-01 11:52:00,
2013-06-01 07:01:00,57.0,54.0,29.60,SE,144,1.0,3.0,91,0.00,,,0.01,,2013-06-01 12:01:00,
2013-06-01 07:12:00,57.0,54.0,29.60,SE,144,1.0,3.0,91,0.00,,,0.01,,2013-06-01 12:12:00,
2013-06-01 07:21:00,58.0,55.0,29.60,SE,143,0.0,3.0,91,0.00,,,0.01,,2013-06-01 12:21:00,
2013-06-01 07:32:00,59.0,56.0,29.60,SE,144,1.0,4.0,90,0.00,,,0.01,,2013-06-01 12:32:00,
2013-06-01 07:42:00,59.0,56.0,29.60,SE,144,1.0,4.0,90,0.00,,,0.01,,2013-06-01 12:42:00,
2013-06-01 07:52:00,60.0,57.0,29.59,SE,143,0.0,0.0,89,0.00,,,0.01,,2013-06-01 12:52:00,
2013-06-01 08:01:00,61.0,57.0,29.59,SE,141,1.0,5.0,87,0.00,,,0.01,,2013-06-01 13:01:00,
2013-06-01 08:11:00,61.0,57.0,29.59,SE,141,1.0,5.0,87,0.00,,,0.01,,2013-06-01 13:11:00,
2013-06-01 08:22:00,62.0,58.0,29.60,SE,134,1.0,5.0,86,0.00,,,0.01,,2013-06-01 13:22:00,
2013-06-01 08:32:00,62.0,58.0,29.61,ESE,119,0.0,4.0,86,0.00,,,0.01,,2013-06-01 13:32:00,
2013-06-01 08:42:00,63.0,57.0,29.61,SSE,161,2.0,4.0,82,0.00,,,0.01,,2013-06-01 13:42:00,
2013-06-01 08:52:00,63.0,57.0,29.61,SSE,161,2.0,4.0,82,0.00,,,0.01,,2013-06-01 13:52:00,
2013-06-01 09:02:00,63.0,57.0,29.61,SE,140,1.0,5.0,81,0.00,,,0.01,,2013-06-01 14:02:00,
2013-06-01 09:11:00,63.0,57.0,29.61,SE,140,1.0,5.0,81,0.00,,,0.01,,2013-06-01 14:11:00,
2013-06-01 09:21:00,63.0,57.0,29.61,SSE,156,1.0,3.0,81,0.00,,,0.01,,2013-06-01 14:21:00,
2013-06-01 09:32:00,63.0,57.0,29.62,SSE,151,0.0,5.0,82,0.00,,,0.01,,2013-06-01 14:32:00,
2013-06-01 09:42:00,63.0,57.0,29.62,SSE,151,0.0,5.0,82,0.00,,,0.01,,2013-06-01 14:42:00,
2013-06-01 09:52:00,63.0,57.0,29.62,SSE,165,1.0,4.0,81,0.00,,,0.01,,2013-06-01 14:52:00,
2013-06-01 10:02:00,63.0,56.0,29.62,South,190,0.0,3.0,79,0.00,,,0.01,,2013-06-01 15:02:00,
2013-06-01 10:11:00,63.0,56.0,29.62,South,190,0.0,3.0,79,0.00,,,0.01,,2013-06-01 15:11:00,
2013-06-01 10:21:00,63.0,56.0,29.62,South,171,0.0,4.0,78,0.00,,,0.01,,2013-06-01 15:21:00,
2013-06-01 10:33:00,64.0,57.0,29.62,South,171,0.0,2.0,79,0.00,,,0.01,,2013-06-01 15:33:00,
2013-06-01 10:43:00,64.0,57.0,29.62,South,171,0.0,2.0,79,0.00,,,0.01,,2013-06-01 15:43:00,
2013-06-01 10:53:00,65.0,57.0,29.61,SSE,148,0.0,3.0,75,0.00,,,0.01,,2013-06-01 15:53:00,
2013-06-01 11:03:00,66.0,58.0,29.61,SE,127,1.0,3.0,76,0.00,,,0.01,,2013-06-01 16:03:00,
2013-06-01 11:12:00,66.0,58.0,29.61,SE,127,1.0,3.0,76,0.00,,,0.01,,2013-06-01 16:12:00,
2013-06-01 11:23:00,67.0,57.0,29.61,SSE,148,2.0,5.0,70,0.00,,,0.01,,2013-06-01 16:23:00,
2013-06-01 11:33:00,69.0,58.0,29.60,SSE,150,2.0,8.0,69,0.00,,,0.01,,2013-06-01 16:33:00,
2013-06-01 11:42:00,69.0,58.0,29.60,SSE,150,2.0,8.0,69,0.00,,,0.01,,2013-06-01 16:42:00,
2013-06-01 11:52:00,70.0,60.0,29.60,SE,138,2.0,7.0,70,0.00,,,0.01,,2013-06-01 16:52:00,
2013-06-01 12:02:00,71.0,61.0,29.60,SE,138,3.0,8.0,70,0.00,,,0.01,,2013-06-01 17:02:00,
2013-06-01 12:12:00,71.0,61.0,29.60,SE,138,3.0,8.0,70,0.00,,,0.01,,2013-06-01 17:12:00,
2013-06-01 12:22:00,69.0,59.0,29.59,SSE,166,2.0,9.0,70,0.00,,,0.01,,2013-06-01 17:22:00,
2013-06-01 12:32:00,69.0,59.0,29.59,SSE,162,1.0,4.0,71,0.00,,,0.01,,2013-06-01 17:32:00,
2013-06-01 12:42:00,69.0,59.0,29.59,SSE,162,1.0,4.0,71,0.00,,,0.01,,2013-06-01 17:42:00,
2013-06-01 12:52:00,70.0,60.0,29.58,South,174,4.0,8.0,70,0.00,,,0.01,,2013-06-01 17:52:00,
2013-06-01 13:01:00,71.0,59.0,29.57,SSW,209,3.0,9.0,65,0.00,,,0.01,,2013-06-01 18:01:00,
2013-06-01 13:12:00,71.0,59.0,29.57,SSW,209,3.0,9.0,65,0.00,,,0.01,,2013-06-01 18:12:00,
2013-06-01 13:22:00,72.0,57.0,29.58,SSE,167,3.0,9.0,60,0.00,,,0.01,,2013-06-01 18:22:00,
2013-06-01 13:32:00,71.0,59.0,29.58,WNW,286,4.0,9.0,65,0.00,,,0.01,,2013-06-01 18:32:00,
2013-06-01 13:42:00,71.0,59.0,29.58,WNW,286,4.0,9.0,65,0.00,,,0.01,,2013-06-01 18:42:00,
2013-06-01 13:52:00,67.0,59.0,29.59,West,269,2.0,8.0,75,0.00,,,0.01,,2013-06-01 18:52:00,
2013-06-01 14:02:00,67.0,59.0,29.58,West,279,3.0,6.0,75,0.00,,,0.01,,2013-06-01 19:02:00,
2013-06-01 14:11:00,67.0,59.0,29.58,West,279,3.0,6.0,75,0.00,,,0.01,,2013-06-01 19:11:00,
2013-06-01 14:21:00,67.0,60.0,29.59,WNW,288,1.0,4.0,78,0.00,,,0.01,,2013-06-01 19:21:00,
2013-06-01 14:32:00,69.0,60.0,29.58,West,281,1.0,6.0,74,0.00,,,0.01,,2013-06-01 19:32:00,
2013-06-01 14:42:00,69.0,60.0,29.58,West,281,1.0,6.0,74,0.00,,,0.01,,2013-06-01 19:42:00,
2013-06-01 14:52:00,71.0,58.0,29.58,SSE,159,4.0,11.0,63,0.00,,,0.01,,2013-06-01 19:52:00,
2013-06-01 15:01:00,71.0,55.0,29.58,WSW,243,7.0,11.0,57,0.00,,,0.01,,2013-06-01 20:01:00,
2013-06-01 15:12:00,71.0,55.0,29.58,WSW,243,7.0,11.0,57,0.00,,,0.01,,2013-06-01 20:12:00,
2013-06-01 15:21:00,68.0,59.0,29.59,WSW,254,6.0,17.0,74,0.00,,,0.01,,2013-06-01 20:21:00,
2013-06-01 15:32:00,68.0,59.0,29.60,West,263,8.0,16.0,72,0.01,,,0.02,,2013-06-01 20:32:00,
2013-06-01 15:42:00,68.0,59.0,29.60,West,263,8.0,16.0,72,0.01,,,0.02,,2013-06-01 20:42:00,
2013-06-01 15:52:00,68.0,57.0,29.60,WNW,302,9.0,16.0,68,0.01,,,0.02,,2013-06-01 20:52:00,
2013-06-01 16:01:00,67.0,56.0,29.61,West,275,7.0,14.0,68,0.01,,,0.02,,2013-06-01 21:01:00,
2013-06-01 16:11:00,66.0,56.0,29.61,WNW,296,5.0,11.0,69,0.01,,,0.02,,2013-06-01 21:11:00,
2013-06-01 16:21:00,66.0,56.0,29.61,WNW,296,5.0,11.0,69,0.01,,,0.02,,2013-06-01 21:21:00,
2013-06-01 16:33:00,66.0,56.0,29.61,West,273,4.0,10.0,71,0.00,,,0.02,,2013-06-01 21:33:00,
2013-06-01 16:42:00,66.0,56.0,29.61,West,273,4.0,10.0,71,0.00,,,0.02,,2013-06-01 21:42:00,
2013-06-01 16:53:00,67.0,58.0,29.62,West,269,3.0,9.0,74,0.00,,,0.02,,2013-06-01 21:53:00,
2013-06-01 17:03:00,67.0,59.0,29.62,West,264,1.0,8.0,76,0.00,,,0.02,,2013-06-01 22:03:00,
2013-06-01 17:12:00,67.0,59.0,29.62,West,264,1.0,8.0,76,0.00,,,0.02,,2013-06-01 22:12:00,
2013-06-01 17:23:00,67.0,60.0,29.62,West,277,4.0,10.0,77,0.00,,,0.02,,2013-06-01 22:23:00,
2013-06-01 17:33:00,67.0,59.0,29.62,NW,305,4.0,13.0,76,0.00,,,0.02,,2013-06-01 22:33:00,
2013-06-01 17:42:00,67.0,59.0,29.62,NW,305,4.0,13.0,76,0.00,,,0.02,,2013-06-01 22:42:00,
2013-06-01 17:53:00,67.0,59.0,29.62,West,263,6.0,11.0,75,0.00,,,0.02,,2013-06-01 22:53:00,
2013-06-01 18:02:00,67.0,59.0,29.62,WSW,245,4.0,12.0,75,0.00,,,0.02,,2013-06-01 23:02:00,
2013-06-01 18:11:00,67.0,59.0,29.62,West,275,5.0,9.0,75,0.00,,,0.02,,2013-06-01 23:11:00,
2013-06-01 18:22:00,67.0,59.0,29.62,West,275,5.0,9.0,75,0.00,,,0.02,,2013-06-01 23:22:00,
2013-06-01 18:32:00,68.0,59.0,29.62,WNW,285,6.0,13.0,72,0.00,,,0.02,,2013-06-01 23:32:00,
2013-06-01 18:42:00,68.0,59.0,29.62,WNW,285,6.0,13.0,72,0.00,,,0.02,,2013-06-01 23:42:00,
2013-06-01 18:52:00,67.0,58.0,29.62,West,271,4.0,11.0,73,0.00,,,0.02,,2013-06-01 23:52:00,
2013-06-01 19:02:00,66.0,56.0,29.63,NW,317,7.0,12.0,69,0.00,,,0.02,,2013-06-02 00:02:00,
2013-06-01 19:11:00,66.0,56.0,29.63,NW,317,7.0,12.0,69,0.00,,,0.02,,2013-06-02 00:11:00,
2013-06-01 19:21:00,64.0,54.0,29.63,WNW,288,4.0,11.0,70,0.00,,,0.02,,2013-06-02 00:21:00,
2013-06-01 19:32:00,64.0,54.0,29.63,WNW,299,3.0,9.0,70,0.00,,,0.02,,2013-06-02 00:32:00,
2013-06-01 19:41:00,64.0,54.0,29.63,WNW,299,3.0,9.0,70,0.00,,,0.02,,2013-06-02 00:41:00,
2013-06-01 19:52:00,64.0,54.0,29.63,WNW,302,2.0,7.0,71,0.00,,,0.02,,2013-06-02 00:52:00,
2013-06-01 20:01:00,64.0,55.0,29.63,WNW,302,3.0,6.0,73,0.00,,,0.02,,2013-06-02 01:01:00,
2013-06-01 20:11:00,64.0,55.0,29.63,WNW,302,3.0,6.0,73,0.00,,,0.02,,2013-06-02 01:11:00,
2013-06-01 20:21:00,63.0,55.0,29.64,WNW,296,2.0,6.0,75,0.00,,,0.02,,2013-06-02 01:21:00,
2013-06-01 20:32:00,63.0,56.0,29.63,NW,308,5.0,10.0,78,0.00,,,0.02,,2013-06-02 01:32:00,
2013-06-01 20:42:00,63.0,56.0,29.63,NW,308,5.0,10.0,78,0.00,,,0.02,,2013-06-02 01:42:00,
2013-06-01 20:52:00,63.0,57.0,29.64,WNW,282,3.0,8.0,81,0.00,,,0.02,,2013-06-02 01:52:00,
2013-06-01 21:01:00,62.0,57.0,29.65,North,360,5.0,12.0,83,0.00,,,0.02,,2013-06-02 02:01:00,
2013-06-01 21:12:00,62.0,57.0,29.65,North,360,5.0,12.0,83,0.00,,,0.02,,2013-06-02 02:12:00,
2013-06-01 21:21:00,61.0,56.0,29.65,North,350,4.0,9.0,85,0.00,,,0.02,,2013-06-02 02:21:00,
2013-06-01 21:32:00,60.0,56.0,29.65,NNW,337,7.0,14.0,86,0.00,,,0.02,,2013-06-02 02:32:00,
2013-06-01 21:41:00,60.0,56.0,29.65,NNW,337,7.0,14.0,86,0.00,,,0.02,,2013-06-02 02:41:00,
2013-06-01 21:52:00,59.0,55.0,29.67,NW,308,7.0,15.0,87,0.00,,,0.02,,2013-06-02 02:52:00,
2013-06-01 22:02:00,57.0,54.0,29.68,WNW,290,8.0,14.0,89,0.00,,,0.02,,2013-06-02 03:02:00,
2013-06-01 22:11:00,57.0,54.0,29.68,WNW,290,8.0,14.0,89,0.00,,,0.02,,2013-06-02 03:11:00,
2013-06-01 22:21:00,56.0,52.0,29.69,WNW,300,8.0,14.0,88,0.00,,,0.02,,2013-06-02 03:21:00,
2013-06-01 22:33:00,55.0,52.0,29.70,NNW,340,7.0,15.0,88,0.00,,,0.02,,2013-06-02 03:33:00,
2013-06-01 22:43:00,55.0,52.0,29.70,NNW,340,7.0,15.0,88,0.00,,,0.02,,2013-06-02 03:43:00,
2013-06-01 22:53:00,53.0,50.0,29.71,NW,323,6.0,13.0,89,0.00,,,0.02,,2013-06-02 03:53:00,
2013-06-01 23:02:00,52.0,49.0,29.72,NNW,344,5.0,14.0,89,0.00,,,0.02,,2013-06-02 04:02:00,
2013-06-01 23:13:00,52.0,49.0,29.72,NNW,344,5.0,14.0,89,0.00,,,0.02,,2013-06-02 04:13:00,
2013-06-01 23:23:00,51.0,48.0,29.73,NNW,329,8.0,18.0,90,0.00,,,0.02,,2013-06-02 04:23:00,
2013-06-01 23:33:00,50.0,47.0,29.73,NNE,13,6.0,14.0,90,0.00,,,0.02,,2013-06-02 04:33:00,
2013-06-01 23:42:00,50.0,47.0,29.73,NNE,13,6.0,14.0,90,0.00,,,0.02,,2013-06-02 04:42:00,
2013-06-01 23:53:00,50.0,47.0,29.74,WNW,293,6.0,19.0,88,0.00,,,0.02,,2013-06-02 04:53:00,